UPSVAC Airport Information Service

Leipzig Halle Airport

ICAO: EDDP Country: Germany
Latitude: 51.4324 Longitude: 12.2416
Latest Arrival : SOX242 (KCVG-EDDP) Latest Departure : UPSJUMP (EDDP-EDDK)


WX CaptureLIVE
Data provided by noaa.gov | Fetched at 13:13:45

METAR : EDDP 141250Z 34010KT 280V030 9999 SCT040CB 07/M02 Q1027 NOSIG

TAF : EDDP 141100Z 1412/1512 32007KT 9999 SCT030 TEMPO 1412/1418 32015G25KT SHRA BKN020CB PROB30 TEMPO 1503/1507 4000 BR


Runway Data for EDDP
Data provided by openaviationdata.com

Runway ID Mag Var Hdg Length Elevation Surface ILS Freq ILS Id ILS Slope
8 1 84° 11786 ft 427 ft Concrete 108.55 ILNE 3
10 1 104° 8183 ft 427 ft Concrete 111.9 ILZE 3
26 1 264° 11786 ft 427 ft Concrete 108.35 ILNW 3
28 1 284° 8183 ft 427 ft Concrete 110.3 ILZW 3

Leipzig Halle Airport, Germany
Use only for reference purposes



Not for navigational purposes.